Time,TemperatureF,DewpointF,PressureIn,WindDirection,WindDirectionDegrees,WindSpeedMPH,WindSpeedGustMPH,Humidity,HourlyPrecipIn,Conditions,Clouds,dailyrainin,SoftwareType,DateUTC
2013-05-15 00:01:00,53.5,39.9,30.09,WNW,294,2.0,7.0,60,0.00,,,0.00,Weather View 32 v70,2013-05-15 07:01:00,
2013-05-15 00:06:00,53.5,40.4,30.09,West,273,3.0,7.0,61,0.00,,,0.00,Weather View 32 v70,2013-05-15 07:06:00,
2013-05-15 00:11:00,53.5,40.4,30.09,West,281,3.0,7.0,61,0.00,,,0.00,Weather View 32 v70,2013-05-15 07:11:00,
2013-05-15 00:16:00,53.5,40.4,30.09,West,274,5.0,7.0,61,0.00,,,0.00,Weather View 32 v70,2013-05-15 07:16:00,
2013-05-15 00:21:00,53.5,40.4,30.09,WSW,258,3.0,8.0,61,0.00,,,0.00,Weather View 32 v70,2013-05-15 07:21:00,
2013-05-15 00:26:00,53.3,40.6,30.09,West,271,2.0,8.0,62,0.00,,,0.00,Weather View 32 v70,2013-05-15 07:26:00,
2013-05-15 00:31:00,53.3,40.2,30.09,West,269,5.0,8.0,61,0.00,,,0.00,Weather View 32 v70,2013-05-15 07:31:00,
2013-05-15 00:36:00,53.2,40.5,30.09,West,269,2.0,8.0,62,0.00,,,0.00,Weather View 32 v70,2013-05-15 07:36:00,
2013-05-15 00:41:00,53.1,40.8,30.09,West,269,3.0,8.0,63,0.00,,,0.00,Weather View 32 v70,2013-05-15 07:41:00,
2013-05-15 00:46:00,52.9,40.6,30.09,West,267,3.0,8.0,63,0.00,,,0.00,Weather View 32 v70,2013-05-15 07:46:00,
2013-05-15 00:51:00,52.8,40.5,30.08,West,269,1.0,8.0,63,0.00,,,0.00,Weather View 32 v70,2013-05-15 07:51:00,
2013-05-15 00:56:00,52.6,40.3,30.08,West,262,3.0,8.0,63,0.00,,,0.00,Weather View 32 v70,2013-05-15 07:56:00,
2013-05-15 01:01:00,52.6,40.7,30.08,West,262,2.0,8.0,64,0.00,,,0.00,Weather View 32 v70,2013-05-15 08:01:00,
2013-05-15 01:06:00,52.3,40.9,30.09,West,271,1.0,8.0,65,0.00,,,0.00,Weather View 32 v70,2013-05-15 08:06:00,
2013-05-15 01:11:00,52.2,41.2,30.09,WNW,286,1.0,8.0,66,0.00,,,0.00,Weather View 32 v70,2013-05-15 08:11:00,
2013-05-15 01:16:00,52.0,41.4,30.09,WNW,285,1.0,8.0,67,0.00,,,0.00,Weather View 32 v70,2013-05-15 08:16:00,
2013-05-15 01:21:00,51.9,41.3,30.08,WNW,283,1.0,7.0,67,0.00,,,0.00,Weather View 32 v70,2013-05-15 08:21:00,
2013-05-15 01:26:00,51.4,39.6,30.08,WNW,283,1.0,7.0,64,0.00,,,0.00,Weather View 32 v70,2013-05-15 08:26:00,
2013-05-15 01:31:00,51.1,40.1,30.08,WNW,283,0.0,7.0,66,0.00,,,0.00,Weather View 32 v70,2013-05-15 08:31:00,
2013-05-15 01:36:00,51.0,40.4,30.08,WNW,283,0.0,7.0,67,0.00,,,0.00,Weather View 32 v70,2013-05-15 08:36:00,
2013-05-15 01:41:00,50.8,40.6,30.08,WNW,283,0.0,6.0,68,0.00,,,0.00,Weather View 32 v70,2013-05-15 08:41:00,
2013-05-15 07:56:00,50.7,41.6,30.06,WNW,302,0.0,2.0,71,0.00,,,0.00,Weather View 32 v70,2013-05-15 14:56:00,
2013-05-15 08:01:00,51.1,42.0,30.06,WNW,302,0.0,1.0,71,0.00,,,0.00,Weather View 32 v70,2013-05-15 15:01:00,
2013-05-15 08:07:00,51.4,41.9,30.06,WNW,302,0.0,1.0,70,0.00,,,0.00,Weather View 32 v70,2013-05-15 15:07:00,
2013-05-15 08:12:00,51.7,42.2,30.06,WNW,302,0.0,1.0,70,0.00,,,0.00,Weather View 32 v70,2013-05-15 15:12:00,
2013-05-15 08:17:00,52.0,42.1,30.06,WNW,302,0.0,0.0,69,0.00,,,0.00,Weather View 32 v70,2013-05-15 15:17:00,
2013-05-15 08:22:00,52.2,42.7,30.06,WNW,302,0.0,0.0,70,0.00,,,0.00,Weather View 32 v70,2013-05-15 15:22:00,
2013-05-15 08:27:00,52.5,43.0,30.06,WNW,302,0.0,0.0,70,0.00,,,0.00,Weather View 32 v70,2013-05-15 15:27:00,
2013-05-15 08:33:00,52.6,43.4,30.06,WNW,302,1.0,4.0,71,0.00,,,0.00,Weather View 32 v70,2013-05-15 15:33:00,
2013-05-15 08:38:00,52.8,44.0,30.06,WNW,302,0.0,4.0,72,0.00,,,0.00,Weather View 32 v70,2013-05-15 15:38:00,
2013-05-15 08:43:00,52.8,44.0,30.06,WNW,302,2.0,4.0,72,0.00,,,0.00,Weather View 32 v70,2013-05-15 15:43:00,
2013-05-15 08:48:00,52.8,43.6,30.06,WNW,302,0.0,4.0,71,0.00,,,0.00,Weather View 32 v70,2013-05-15 15:48:00,
2013-05-15 08:53:00,52.9,43.4,30.06,WNW,302,2.0,4.0,70,0.00,,,0.00,Weather View 32 v70,2013-05-15 15:53:00,
2013-05-15 08:59:00,53.1,43.9,30.06,WNW,302,1.0,4.0,71,0.00,,,0.00,Weather View 32 v70,2013-05-15 15:59:00,
2013-05-15 09:04:00,53.3,44.1,30.06,WNW,302,2.0,4.0,71,0.00,,,0.00,Weather View 32 v70,2013-05-15 16:04:00,
2013-05-15 09:09:00,53.5,44.3,30.06,WNW,302,0.0,4.0,71,0.00,,,0.00,Weather View 32 v70,2013-05-15 16:09:00,
2013-05-15 09:14:00,53.6,44.0,30.05,WNW,302,0.0,4.0,70,0.00,,,0.00,Weather View 32 v70,2013-05-15 16:14:00,
2013-05-15 09:19:00,53.9,43.9,30.05,WNW,302,0.0,4.0,69,0.00,,,0.00,Weather View 32 v70,2013-05-15 16:19:00,
2013-05-15 09:24:00,54.1,44.1,30.05,WNW,302,0.0,4.0,69,0.00,,,0.00,Weather View 32 v70,2013-05-15 16:24:00,
2013-05-15 09:29:00,54.2,44.2,30.05,WNW,302,0.0,4.0,69,0.00,,,0.00,Weather View 32 v70,2013-05-15 16:29:00,
2013-05-15 09:34:00,54.4,44.4,30.05,WNW,302,0.0,4.0,69,0.00,,,0.00,Weather View 32 v70,2013-05-15 16:34:00,
2013-05-15 09:40:00,54.5,43.7,30.05,WNW,302,0.0,4.0,67,0.00,,,0.00,Weather View 32 v70,2013-05-15 16:40:00,
2013-05-15 09:45:00,54.7,44.3,30.05,WNW,302,0.0,4.0,68,0.00,,,0.00,Weather View 32 v70,2013-05-15 16:45:00,
2013-05-15 09:50:00,55.1,43.5,30.05,WNW,302,0.0,4.0,65,0.00,,,0.00,Weather View 32 v70,2013-05-15 16:50:00,
2013-05-15 09:55:00,55.4,44.2,30.05,WNW,302,3.0,4.0,66,0.00,,,0.00,Weather View 32 v70,2013-05-15 16:55:00,
2013-05-15 10:00:00,55.6,44.4,30.05,WNW,302,2.0,4.0,66,0.00,,,0.00,Weather View 32 v70,2013-05-15 17:00:00,
2013-05-15 10:05:00,55.4,44.2,30.05,WNW,303,4.0,5.0,66,0.00,,,0.00,Weather View 32 v70,2013-05-15 17:05:00,
2013-05-15 10:10:00,55.3,44.5,30.04,NW,305,3.0,6.0,67,0.00,,,0.00,Weather View 32 v70,2013-05-15 17:10:00,
2013-05-15 10:15:00,55.1,43.9,30.04,NW,306,1.0,7.0,66,0.00,,,0.00,Weather View 32 v70,2013-05-15 17:15:00,
2013-05-15 10:21:00,55.4,44.2,30.04,NW,307,4.0,7.0,66,0.00,,,0.00,Weather View 32 v70,2013-05-15 17:21:00,
2013-05-15 10:27:00,55.6,43.6,30.04,West,273,4.0,8.0,64,0.00,,,0.00,Weather View 32 v70,2013-05-15 17:27:00,
2013-05-15 10:32:00,55.6,44.0,30.04,WNW,283,4.0,10.0,65,0.00,,,0.00,Weather View 32 v70,2013-05-15 17:32:00,
2013-05-15 10:37:00,55.7,43.7,30.04,WNW,283,1.0,10.0,64,0.00,,,0.00,Weather View 32 v70,2013-05-15 17:37:00,
2013-05-15 10:42:00,56.3,43.4,30.05,West,262,3.0,10.0,62,0.00,,,0.00,Weather View 32 v70,2013-05-15 17:42:00,
2013-05-15 10:48:00,56.9,42.2,30.05,West,277,2.0,10.0,58,0.00,,,0.00,Weather View 32 v70,2013-05-15 17:48:00,
2013-05-15 10:53:00,57.2,42.1,30.05,WSW,258,9.0,10.0,57,0.00,,,0.00,Weather View 32 v70,2013-05-15 17:53:00,
2013-05-15 10:58:00,57.3,42.2,30.05,West,278,5.0,10.0,57,0.00,,,0.00,Weather View 32 v70,2013-05-15 17:58:00,
2013-05-15 11:03:00,57.3,42.2,30.05,WNW,286,2.0,12.0,57,0.00,,,0.00,Weather View 32 v70,2013-05-15 18:03:00,
2013-05-15 11:09:00,57.3,41.7,30.05,WSW,252,3.0,13.0,56,0.00,,,0.00,Weather View 32 v70,2013-05-15 18:09:00,
2013-05-15 11:14:00,57.2,41.6,30.05,West,273,4.0,13.0,56,0.00,,,0.00,Weather View 32 v70,2013-05-15 18:14:00,
2013-05-15 11:19:00,57.3,41.7,30.05,WNW,287,4.0,13.0,56,0.00,,,0.00,Weather View 32 v70,2013-05-15 18:19:00,
2013-05-15 11:24:00,57.3,42.2,30.05,WNW,282,7.0,13.0,57,0.00,,,0.00,Weather View 32 v70,2013-05-15 18:24:00,
2013-05-15 11:30:00,57.0,42.3,30.05,NW,312,4.0,13.0,58,0.00,,,0.00,Weather View 32 v70,2013-05-15 18:30:00,
2013-05-15 11:35:00,56.7,42.1,30.05,West,280,7.0,15.0,58,0.00,,,0.00,Weather View 32 v70,2013-05-15 18:35:00,
2013-05-15 11:40:00,56.5,43.2,30.05,WNW,289,5.0,15.0,61,0.00,,,0.00,Weather View 32 v70,2013-05-15 18:40:00,
2013-05-15 11:45:00,56.2,44.2,30.05,WSW,252,8.0,15.0,64,0.00,,,0.00,Weather View 32 v70,2013-05-15 18:45:00,
2013-05-15 11:50:00,55.6,44.4,30.05,WNW,297,7.0,16.0,66,0.00,,,0.00,Weather View 32 v70,2013-05-15 18:50:00,
2013-05-15 11:55:00,55.3,45.3,30.05,WNW,287,12.0,16.0,69,0.00,,,0.00,Weather View 32 v70,2013-05-15 18:55:00,
2013-05-15 12:00:00,55.3,45.3,30.05,West,262,4.0,16.0,69,0.00,,,0.00,Weather View 32 v70,2013-05-15 19:00:00,
2013-05-15 12:06:00,55.4,45.4,30.05,WNW,288,4.0,16.0,69,0.00,,,0.00,Weather View 32 v70,2013-05-15 19:06:00,
2013-05-15 12:11:00,55.7,45.7,30.05,WNW,288,5.0,16.0,69,0.00,,,0.00,Weather View 32 v70,2013-05-15 19:11:00,
2013-05-15 12:16:00,56.2,46.5,30.05,West,266,7.0,16.0,70,0.00,,,0.00,Weather View 32 v70,2013-05-15 19:16:00,
2013-05-15 12:22:00,56.7,45.4,30.04,WNW,292,9.0,18.0,66,0.00,,,0.00,Weather View 32 v70,2013-05-15 19:22:00,
2013-05-15 12:27:00,57.3,45.6,30.04,NW,306,7.0,18.0,65,0.00,,,0.00,Weather View 32 v70,2013-05-15 19:27:00,
2013-05-15 12:32:00,57.6,43.8,30.04,WNW,300,9.0,18.0,60,0.00,,,0.00,Weather View 32 v70,2013-05-15 19:32:00,
2013-05-15 12:37:00,57.5,43.7,30.04,WNW,294,4.0,18.0,60,0.00,,,0.00,Weather View 32 v70,2013-05-15 19:37:00,
2013-05-15 12:42:00,57.2,43.4,30.04,NW,310,7.0,18.0,60,0.00,,,0.00,Weather View 32 v70,2013-05-15 19:42:00,
2013-05-15 12:48:00,57.2,43.8,30.04,WNW,303,7.0,18.0,61,0.00,,,0.00,Weather View 32 v70,2013-05-15 19:48:00,
2013-05-15 12:53:00,56.9,43.6,30.04,WNW,285,9.0,18.0,61,0.00,,,0.00,Weather View 32 v70,2013-05-15 19:53:00,
2013-05-15 12:58:00,56.7,45.0,30.04,WNW,292,8.0,18.0,65,0.00,,,0.00,Weather View 32 v70,2013-05-15 19:58:00,
2013-05-15 13:03:00,56.7,45.0,30.04,WNW,285,6.0,18.0,65,0.00,,,0.00,Weather View 32 v70,2013-05-15 20:03:00,
2013-05-15 13:08:00,56.9,45.2,30.04,West,264,12.0,18.0,65,0.00,,,0.00,Weather View 32 v70,2013-05-15 20:08:00,
2013-05-15 13:14:00,57.0,44.1,30.04,WNW,290,7.0,18.0,62,0.00,,,0.00,Weather View 32 v70,2013-05-15 20:14:00,
2013-05-15 13:19:00,57.3,44.8,30.04,WNW,297,5.0,16.0,63,0.00,,,0.00,Weather View 32 v70,2013-05-15 20:19:00,
2013-05-15 13:24:00,57.6,45.1,30.04,NW,306,5.0,16.0,63,0.00,,,0.00,Weather View 32 v70,2013-05-15 20:24:00,
2013-05-15 13:30:00,58.6,45.6,30.04,NW,317,6.0,16.0,62,0.00,,,0.00,Weather View 32 v70,2013-05-15 20:30:00,
2013-05-15 13:35:00,59.9,45.9,30.03,WNW,288,7.0,16.0,60,0.00,,,0.00,Weather View 32 v70,2013-05-15 20:35:00,
2013-05-15 13:40:00,60.4,44.6,30.03,WNW,289,5.0,16.0,56,0.00,,,0.00,Weather View 32 v70,2013-05-15 20:40:00,
2013-05-15 13:45:00,60.5,44.7,30.03,West,269,9.0,16.0,56,0.00,,,0.00,Weather View 32 v70,2013-05-15 20:45:00,
2013-05-15 13:50:00,60.1,44.3,30.03,NW,309,7.0,16.0,56,0.00,,,0.00,Weather View 32 v70,2013-05-15 20:50:00,
2013-05-15 13:55:00,59.6,44.8,30.03,West,269,7.0,16.0,58,0.00,,,0.00,Weather View 32 v70,2013-05-15 20:55:00,
2013-05-15 14:00:00,59.8,45.0,30.03,WNW,283,4.0,16.0,58,0.00,,,0.00,Weather View 32 v70,2013-05-15 21:00:00,
2013-05-15 14:05:00,59.9,45.1,30.03,West,277,4.0,16.0,58,0.00,,,0.00,Weather View 32 v70,2013-05-15 21:05:00,
2013-05-15 14:11:00,59.8,44.5,30.03,WNW,293,10.0,16.0,57,0.00,,,0.00,Weather View 32 v70,2013-05-15 21:11:00,
2013-05-15 14:15:00,59.6,44.8,30.03,SW,219,8.0,17.0,58,0.00,,,0.00,Weather View 32 v70,2013-05-15 21:15:00,
2013-05-15 14:21:00,59.9,45.1,30.02,WNW,303,4.0,17.0,58,0.00,,,0.00,Weather View 32 v70,2013-05-15 21:21:00,
2013-05-15 14:26:00,60.7,44.9,30.02,WNW,288,6.0,17.0,56,0.00,,,0.00,Weather View 32 v70,2013-05-15 21:26:00,
2013-05-15 14:31:00,61.2,44.9,30.02,WNW,289,5.0,17.0,55,0.00,,,0.00,Weather View 32 v70,2013-05-15 21:31:00,
2013-05-15 14:36:00,61.2,44.9,30.02,WNW,291,7.0,17.0,55,0.00,,,0.00,Weather View 32 v70,2013-05-15 21:36:00,
2013-05-15 14:41:00,61.2,44.4,30.02,WNW,300,3.0,17.0,54,0.00,,,0.00,Weather View 32 v70,2013-05-15 21:41:00,
2013-05-15 14:46:00,60.9,44.6,30.02,West,271,3.0,17.0,55,0.00,,,0.00,Weather View 32 v70,2013-05-15 21:46:00,
2013-05-15 14:51:00,60.5,44.2,30.02,West,281,15.0,17.0,55,0.00,,,0.00,Weather View 32 v70,2013-05-15 21:51:00,
2013-05-15 14:57:00,60.1,44.8,30.02,NW,304,5.0,17.0,57,0.00,,,0.00,Weather View 32 v70,2013-05-15 21:57:00,
2013-05-15 15:02:00,60.4,45.1,30.02,WNW,302,4.0,17.0,57,0.00,,,0.00,Weather View 32 v70,2013-05-15 22:02:00,
2013-05-15 15:07:00,61.0,45.2,30.02,WNW,288,10.0,17.0,56,0.00,,,0.00,Weather View 32 v70,2013-05-15 22:07:00,
2013-05-15 15:12:00,61.3,45.4,30.02,West,281,7.0,18.0,56,0.00,,,0.00,Weather View 32 v70,2013-05-15 22:12:00,
2013-05-15 15:17:00,61.6,45.2,30.02,West,266,9.0,18.0,55,0.00,,,0.00,Weather View 32 v70,2013-05-15 22:17:00,
2013-05-15 15:22:00,61.8,44.9,30.02,WNW,300,3.0,18.0,54,0.00,,,0.00,Weather View 32 v70,2013-05-15 22:22:00,
2013-05-15 15:27:00,61.5,45.1,30.02,WNW,296,9.0,22.0,55,0.00,,,0.00,Weather View 32 v70,2013-05-15 22:27:00,
2013-05-15 15:32:00,61.0,45.2,30.02,WNW,296,7.0,22.0,56,0.00,,,0.00,Weather View 32 v70,2013-05-15 22:32:00,
2013-05-15 15:37:00,60.7,44.9,30.02,WNW,299,7.0,22.0,56,0.00,,,0.00,Weather View 32 v70,2013-05-15 22:37:00,
2013-05-15 15:42:00,60.2,44.9,30.02,WSW,256,4.0,22.0,57,0.00,,,0.00,Weather View 32 v70,2013-05-15 22:42:00,
2013-05-15 15:47:00,59.9,44.6,30.02,WNW,288,15.0,22.0,57,0.00,,,0.00,Weather View 32 v70,2013-05-15 22:47:00,
2013-05-15 15:53:00,59.3,44.5,30.02,NW,304,8.0,22.0,58,0.00,,,0.00,Weather View 32 v70,2013-05-15 22:53:00,
2013-05-15 15:58:00,59.0,44.7,30.02,West,274,4.0,22.0,59,0.00,,,0.00,Weather View 32 v70,2013-05-15 22:58:00,
2013-05-15 16:03:00,58.9,44.6,30.02,WNW,300,9.0,22.0,59,0.00,,,0.00,Weather View 32 v70,2013-05-15 23:03:00,
2013-05-15 16:08:00,59.0,45.1,30.02,West,277,5.0,22.0,60,0.00,,,0.00,Weather View 32 v70,2013-05-15 23:08:00,
2013-05-15 16:14:00,59.3,44.9,30.02,NW,309,4.0,22.0,59,0.00,,,0.00,Weather View 32 v70,2013-05-15 23:14:00,
2013-05-15 16:19:00,59.3,44.9,30.02,NW,315,5.0,22.0,59,0.00,,,0.00,Weather View 32 v70,2013-05-15 23:19:00,
2013-05-15 16:24:00,59.8,45.4,30.02,NW,306,12.0,17.0,59,0.00,,,0.00,Weather View 32 v70,2013-05-15 23:24:00,
2013-05-15 16:29:00,60.1,45.7,30.02,NW,306,3.0,17.0,59,0.00,,,0.00,Weather View 32 v70,2013-05-15 23:29:00,
2013-05-15 16:35:00,60.1,45.2,30.02,WNW,294,6.0,17.0,58,0.00,,,0.00,Weather View 32 v70,2013-05-15 23:35:00,
2013-05-15 16:40:00,59.9,45.5,30.02,WNW,284,6.0,17.0,59,0.00,,,0.00,Weather View 32 v70,2013-05-15 23:40:00,
2013-05-15 16:45:00,59.8,45.4,30.02,West,269,9.0,17.0,59,0.00,,,0.00,Weather View 32 v70,2013-05-15 23:45:00,
2013-05-15 16:50:00,59.5,45.6,30.02,West,273,5.0,17.0,60,0.00,,,0.00,Weather View 32 v70,2013-05-15 23:50:00,
2013-05-15 16:55:00,59.3,45.8,30.02,WNW,296,5.0,17.0,61,0.00,,,0.00,Weather View 32 v70,2013-05-15 23:55:00,
2013-05-15 17:00:00,59.3,45.8,30.02,NW,306,5.0,16.0,61,0.00,,,0.00,Weather View 32 v70,2013-05-16 00:00:00,
2013-05-15 17:05:00,59.5,45.6,30.02,NW,305,5.0,15.0,60,0.00,,,0.00,Weather View 32 v70,2013-05-16 00:05:00,
2013-05-15 17:10:00,59.9,45.9,30.02,West,263,8.0,15.0,60,0.00,,,0.00,Weather View 32 v70,2013-05-16 00:10:00,
2013-05-15 17:15:00,59.9,45.9,30.02,WNW,285,3.0,15.0,60,0.00,,,0.00,Weather View 32 v70,2013-05-16 00:15:00,
2013-05-15 17:20:00,59.6,45.7,30.01,West,277,4.0,15.0,60,0.00,,,0.00,Weather View 32 v70,2013-05-16 00:20:00,
2013-05-15 17:26:00,59.5,46.0,30.01,WNW,300,4.0,15.0,61,0.00,,,0.00,Weather View 32 v70,2013-05-16 00:26:00,
2013-05-15 17:31:00,59.0,46.0,30.01,West,280,6.0,15.0,62,0.00,,,0.00,Weather View 32 v70,2013-05-16 00:31:00,
2013-05-15 17:37:00,58.9,45.9,30.01,West,279,5.0,15.0,62,0.00,,,0.00,Weather View 32 v70,2013-05-16 00:37:00,
2013-05-15 17:42:00,58.7,45.7,30.01,West,279,5.0,15.0,62,0.00,,,0.00,Weather View 32 v70,2013-05-16 00:42:00,
2013-05-15 17:47:00,58.4,45.8,30.01,West,277,3.0,15.0,63,0.00,,,0.00,Weather View 32 v70,2013-05-16 00:47:00,
2013-05-15 17:52:00,58.3,46.1,30.01,WNW,291,8.0,15.0,64,0.00,,,0.00,Weather View 32 v70,2013-05-16 00:52:00,
2013-05-15 17:57:00,58.1,46.0,30.01,West,263,9.0,15.0,64,0.00,,,0.00,Weather View 32 v70,2013-05-16 00:57:00,
2013-05-15 18:03:00,58.0,45.9,30.01,WNW,297,4.0,15.0,64,0.00,,,0.00,Weather View 32 v70,2013-05-16 01:03:00,
2013-05-15 18:08:00,58.0,46.3,30.01,WNW,282,2.0,14.0,65,0.00,,,0.00,Weather View 32 v70,2013-05-16 01:08:00,
2013-05-15 18:13:00,58.1,46.4,30.01,WNW,286,5.0,14.0,65,0.00,,,0.00,Weather View 32 v70,2013-05-16 01:13:00,
2013-05-15 18:19:00,58.1,46.0,30.01,West,279,5.0,14.0,64,0.00,,,0.00,Weather View 32 v70,2013-05-16 01:19:00,
2013-05-15 18:24:00,58.1,46.0,30.01,West,260,3.0,14.0,64,0.00,,,0.00,Weather View 32 v70,2013-05-16 01:24:00,
2013-05-15 18:29:00,58.3,46.1,30.00,NW,312,9.0,14.0,64,0.00,,,0.00,Weather View 32 v70,2013-05-16 01:29:00,
2013-05-15 18:34:00,58.3,46.1,30.00,West,275,4.0,14.0,64,0.00,,,0.00,Weather View 32 v70,2013-05-16 01:34:00,
2013-05-15 18:39:00,58.3,46.1,30.00,West,274,7.0,14.0,64,0.00,,,0.00,Weather View 32 v70,2013-05-16 01:39:00,
2013-05-15 18:45:00,58.3,46.6,30.00,WNW,295,5.0,15.0,65,0.00,,,0.00,Weather View 32 v70,2013-05-16 01:45:00,
2013-05-15 18:50:00,58.1,46.4,30.00,West,267,8.0,15.0,65,0.00,,,0.00,Weather View 32 v70,2013-05-16 01:50:00,
2013-05-15 18:55:00,58.0,46.7,30.00,West,277,4.0,15.0,66,0.00,,,0.00,Weather View 32 v70,2013-05-16 01:55:00,
2013-05-15 19:00:00,58.0,46.7,30.00,WNW,284,5.0,15.0,66,0.00,,,0.00,Weather View 32 v70,2013-05-16 02:00:00,
2013-05-15 19:05:00,58.1,46.4,30.00,West,272,3.0,15.0,65,0.00,,,0.00,Weather View 32 v70,2013-05-16 02:05:00,
2013-05-15 19:10:00,58.4,46.7,30.00,WNW,286,4.0,15.0,65,0.00,,,0.00,Weather View 32 v70,2013-05-16 02:10:00,
2013-05-15 19:15:00,58.6,46.4,30.00,West,271,3.0,15.0,64,0.00,,,0.00,Weather View 32 v70,2013-05-16 02:15:00,
2013-05-15 19:20:00,58.6,46.4,30.00,West,280,6.0,15.0,64,0.00,,,0.00,Weather View 32 v70,2013-05-16 02:20:00,
2013-05-15 19:26:00,58.6,46.4,30.00,WSW,252,6.0,15.0,64,0.00,,,0.00,Weather View 32 v70,2013-05-16 02:26:00,
2013-05-15 19:31:00,58.7,46.1,30.00,West,267,4.0,15.0,63,0.00,,,0.00,Weather View 32 v70,2013-05-16 02:31:00,
2013-05-15 19:37:00,58.1,46.4,30.00,West,267,3.0,15.0,65,0.00,,,0.00,Weather View 32 v70,2013-05-16 02:37:00,
2013-05-15 19:42:00,57.8,46.1,30.00,West,275,4.0,15.0,65,0.00,,,0.00,Weather View 32 v70,2013-05-16 02:42:00,
2013-05-15 19:47:00,57.6,45.9,30.00,West,273,5.0,15.0,65,0.00,,,0.00,Weather View 32 v70,2013-05-16 02:47:00,
2013-05-15 19:52:00,57.5,46.2,30.00,WNW,296,1.0,15.0,66,0.00,,,0.00,Weather View 32 v70,2013-05-16 02:52:00,
2013-05-15 19:57:00,57.5,46.2,30.00,West,273,8.0,15.0,66,0.00,,,0.00,Weather View 32 v70,2013-05-16 02:57:00,
2013-05-15 20:03:00,57.3,46.0,30.01,WNW,282,3.0,15.0,66,0.00,,,0.00,Weather View 32 v70,2013-05-16 03:03:00,
2013-05-15 20:08:00,57.3,46.0,30.01,West,277,4.0,15.0,66,0.00,,,0.00,Weather View 32 v70,2013-05-16 03:08:00,
2013-05-15 20:13:00,57.2,45.9,30.00,WNW,290,5.0,15.0,66,0.00,,,0.00,Weather View 32 v70,2013-05-16 03:13:00,
2013-05-15 20:19:00,57.2,45.9,30.00,West,279,2.0,15.0,66,0.00,,,0.00,Weather View 32 v70,2013-05-16 03:19:00,
2013-05-15 20:24:00,57.0,46.1,30.00,West,281,2.0,15.0,67,0.00,,,0.00,Weather View 32 v70,2013-05-16 03:24:00,
2013-05-15 20:29:00,56.9,46.0,30.00,West,278,2.0,15.0,67,0.00,,,0.00,Weather View 32 v70,2013-05-16 03:29:00,
2013-05-15 20:34:00,56.7,45.8,30.00,West,271,8.0,15.0,67,0.00,,,0.00,Weather View 32 v70,2013-05-16 03:34:00,
2013-05-15 20:39:00,56.7,45.8,30.00,West,262,3.0,15.0,67,0.00,,,0.00,Weather View 32 v70,2013-05-16 03:39:00,
2013-05-15 20:44:00,56.5,46.0,30.00,WSW,252,4.0,10.0,68,0.00,,,0.00,Weather View 32 v70,2013-05-16 03:44:00,
2013-05-15 20:49:00,56.3,45.9,30.00,WNW,288,2.0,10.0,68,0.00,,,0.00,Weather View 32 v70,2013-05-16 03:49:00,
2013-05-15 20:54:00,56.3,45.9,30.01,West,279,4.0,11.0,68,0.00,,,0.00,Weather View 32 v70,2013-05-16 03:54:00,
2013-05-15 21:00:00,56.2,45.8,30.01,West,279,7.0,11.0,68,0.00,,,0.00,Weather View 32 v70,2013-05-16 04:00:00,
2013-05-15 21:01:00,56.2,46.1,30.01,WSW,257,2.0,11.0,69,0.00,,,0.00,Weather View 32 v70,2013-05-16 04:01:00,
2013-05-15 21:06:00,56.2,46.1,30.01,WNW,298,3.0,11.0,69,0.00,,,0.00,Weather View 32 v70,2013-05-16 04:06:00,
2013-05-15 21:11:00,56.0,46.0,30.01,WNW,300,6.0,11.0,69,0.00,,,0.00,Weather View 32 v70,2013-05-16 04:11:00,
2013-05-15 21:16:00,56.2,46.1,30.01,WNW,287,3.0,11.0,69,0.00,,,0.00,Weather View 32 v70,2013-05-16 04:16:00,
2013-05-15 21:21:00,56.2,46.1,30.01,West,277,9.0,11.0,69,0.00,,,0.00,Weather View 32 v70,2013-05-16 04:21:00,
2013-05-15 21:26:00,56.2,46.5,30.01,West,281,3.0,11.0,70,0.00,,,0.00,Weather View 32 v70,2013-05-16 04:26:00,
2013-05-15 21:31:00,56.2,46.5,30.01,West,278,5.0,11.0,70,0.00,,,0.00,Weather View 32 v70,2013-05-16 04:31:00,
2013-05-15 21:36:00,56.0,46.7,30.01,WNW,284,2.0,11.0,71,0.00,,,0.00,Weather View 32 v70,2013-05-16 04:36:00,
2013-05-15 21:41:00,56.0,46.7,30.01,NW,304,5.0,11.0,71,0.00,,,0.00,Weather View 32 v70,2013-05-16 04:41:00,
2013-05-15 21:46:00,56.0,46.7,30.02,WNW,286,2.0,11.0,71,0.00,,,0.00,Weather View 32 v70,2013-05-16 04:46:00,
2013-05-15 21:51:00,56.0,46.7,30.01,WNW,296,7.0,11.0,71,0.00,,,0.00,Weather View 32 v70,2013-05-16 04:51:00,
2013-05-15 21:56:00,55.9,47.0,30.01,West,264,7.0,11.0,72,0.00,,,0.00,Weather View 32 v70,2013-05-16 04:56:00,
2013-05-15 22:01:00,55.7,47.2,30.01,WNW,284,2.0,12.0,73,0.00,,,0.00,Weather View 32 v70,2013-05-16 05:01:00,
2013-05-15 22:06:00,55.6,47.1,30.01,NW,318,6.0,12.0,73,0.00,,,0.00,Weather View 32 v70,2013-05-16 05:06:00,
2013-05-15 22:11:00,55.4,47.2,30.02,WNW,282,7.0,12.0,74,0.00,,,0.00,Weather View 32 v70,2013-05-16 05:11:00,
2013-05-15 22:16:00,55.3,47.1,30.02,WNW,292,4.0,12.0,74,0.00,,,0.00,Weather View 32 v70,2013-05-16 05:16:00,
2013-05-15 22:21:00,55.4,46.9,30.02,West,268,2.0,12.0,73,0.00,,,0.00,Weather View 32 v70,2013-05-16 05:21:00,
2013-05-15 22:26:00,55.6,47.1,30.02,WNW,298,0.0,12.0,73,0.00,,,0.00,Weather View 32 v70,2013-05-16 05:26:00,
2013-05-15 22:31:00,55.6,47.1,30.02,WNW,296,2.0,12.0,73,0.00,,,0.00,Weather View 32 v70,2013-05-16 05:31:00,
2013-05-15 22:36:00,55.4,46.9,30.02,WNW,294,3.0,12.0,73,0.00,,,0.00,Weather View 32 v70,2013-05-16 05:36:00,
2013-05-15 22:41:00,55.3,47.1,30.02,WNW,282,1.0,12.0,74,0.00,,,0.00,Weather View 32 v70,2013-05-16 05:41:00,
2013-05-15 22:46:00,55.1,47.3,30.02,WNW,294,2.0,12.0,75,0.00,,,0.00,Weather View 32 v70,2013-05-16 05:46:00,
2013-05-15 22:51:00,55.0,47.2,30.02,WNW,284,4.0,12.0,75,0.00,,,0.00,Weather View 32 v70,2013-05-16 05:51:00,
2013-05-15 22:56:00,55.0,47.2,30.02,West,263,8.0,12.0,75,0.00,,,0.00,Weather View 32 v70,2013-05-16 05:56:00,
2013-05-15 23:01:00,55.0,47.6,30.02,WNW,290,1.0,12.0,76,0.00,,,0.00,Weather View 32 v70,2013-05-16 06:01:00,
2013-05-15 23:06:00,55.0,47.6,30.02,West,275,3.0,9.0,76,0.00,,,0.00,Weather View 32 v70,2013-05-16 06:06:00,
2013-05-15 23:11:00,55.0,47.9,30.02,WNW,296,2.0,9.0,77,0.00,,,0.00,Weather View 32 v70,2013-05-16 06:11:00,
2013-05-15 23:16:00,54.8,47.7,30.01,West,280,4.0,9.0,77,0.00,,,0.00,Weather View 32 v70,2013-05-16 06:16:00,
2013-05-15 23:21:00,54.8,47.7,30.02,West,280,4.0,11.0,77,0.00,,,0.00,Weather View 32 v70,2013-05-16 06:21:00,
2013-05-15 23:26:00,54.8,47.7,30.02,West,271,7.0,11.0,77,0.00,,,0.00,Weather View 32 v70,2013-05-16 06:26:00,
2013-05-15 23:31:00,54.8,47.7,30.02,WNW,282,5.0,11.0,77,0.00,,,0.00,Weather View 32 v70,2013-05-16 06:31:00,
2013-05-15 23:36:00,55.0,47.9,30.02,WNW,282,2.0,11.0,77,0.00,,,0.00,Weather View 32 v70,2013-05-16 06:36:00,
2013-05-15 23:41:00,55.0,47.9,30.01,WSW,256,3.0,11.0,77,0.00,,,0.00,Weather View 32 v70,2013-05-16 06:41:00,
2013-05-15 23:46:00,55.0,47.9,30.01,West,267,7.0,11.0,77,0.00,,,0.00,Weather View 32 v70,2013-05-16 06:46:00,
2013-05-15 23:51:00,55.0,47.9,30.01,WNW,294,3.0,11.0,77,0.00,,,0.00,Weather View 32 v70,2013-05-16 06:51:00,
2013-05-15 23:56:00,54.7,47.6,30.01,WNW,287,2.0,11.0,77,0.00,,,0.00,Weather View 32 v70,2013-05-16 06:56:00,